Terminal Aerodrome Forecast
Issued by NWS Indianapolis, IN

Home | Current Version | Previous Version | Text Only | Print | Product List | Glossary On
Versions: 1 2 3 4 5 6 7 8 9 10 11 12 13 14 15 16 17 18 19 20 21 22 23 24 25 26 27 28 29 30 31 32 33 34
000
FTUS43 KIND 211700
TAFIND
TAF
KIND 211728Z 2118/2224 19003KT P6SM BKN025 BKN140
     FM220600 21006KT P6SM VCTS SCT080CB BKN150
     FM221200 23008KT P6SM SCT150 BKN250=

USA.gov is the U.S. government's official web portal to all federal, state and local government web resources and services.